Time;durP1;ratioP1;P1;durP2;ratioP2;P2;SDS_P1;SDS_P2;PMS_P1;PMS_P2;Temp;Humidity;BMP_temperature;BMP_pressure;BME280_temperature;BME280_humidity;BME280_pressure;Samples;Min_cycle;Max_cycle;Signal;HPM_P1;HPM_P2
2020/12/02 00:00:56;;;;;;;212.40;85.80;;;;;;;-7.14;79.17;98772.14;1744158;82;26890;-71
2020/12/02 00:03:38;;;;;;;245.30;93.12;;;;;;;-7.15;79.45;98777.08;1744104;82;28325;-73
2020/12/02 00:06:04;;;;;;;244.55;91.70;;;;;;;-7.15;79.23;98770.49;1743278;82;21040;-70
2020/12/02 00:08:47;;;;;;;225.78;95.57;;;;;;;-7.19;78.82;98773.06;1744131;82;21152;-71
2020/12/02 00:11:13;;;;;;;232.87;99.07;;;;;;;-7.20;78.83;98772.73;1716508;82;21132;-71
2020/12/02 00:13:43;;;;;;;257.87;98.67;;;;;;;-7.33;77.51;98770.96;1744110;82;21242;-71
2020/12/02 00:16:09;;;;;;;251.07;105.78;;;;;;;-7.39;78.39;98768.91;1715256;82;21071;-73
2020/12/02 00:18:35;;;;;;;235.13;92.62;;;;;;;-7.40;78.41;98771.20;1690822;82;21091;-73
2020/12/02 00:21:05;;;;;;;268.25;106.72;;;;;;;-7.43;78.21;98770.20;1744154;82;22069;-71
2020/12/02 00:23:32;;;;;;;238.77;100.33;;;;;;;-7.50;77.83;98773.07;1744027;82;21600;-73
2020/12/02 00:25:58;;;;;;;248.87;99.67;;;;;;;-7.65;78.18;98766.63;1744150;82;21072;-73
2020/12/02 00:28:24;;;;;;;232.57;94.87;;;;;;;-7.67;77.95;98767.61;1744173;81;22313;-73
2020/12/02 00:30:49;;;;;;;237.32;96.87;;;;;;;-7.71;77.77;98768.86;1744151;82;21586;-72
2020/12/02 00:33:21;;;;;;;229.35;93.55;;;;;;;-7.71;78.67;98762.28;1744084;82;21188;-71
2020/12/02 00:35:47;;;;;;;233.60;93.37;;;;;;;-7.61;79.11;98763.55;1744080;82;21063;-72
2020/12/02 00:38:13;;;;;;;244.93;104.32;;;;;;;-7.60;78.12;98767.03;1744100;81;26324;-71
2020/12/02 00:40:44;;;;;;;259.85;105.37;;;;;;;-7.69;77.86;98768.25;1744103;82;28136;-72
2020/12/02 00:43:06;;;;;;;258.98;106.40;;;;;;;-7.73;78.19;98764.73;1743342;82;21060;-73
2020/12/02 00:45:32;;;;;;;244.90;96.08;;;;;;;-7.77;77.92;98772.58;1744123;82;21343;-72
2020/12/02 00:47:58;;;;;;;236.82;91.40;;;;;;;-7.82;78.49;98775.63;1744029;82;27125;-72
2020/12/02 00:50:24;;;;;;;212.90;84.28;;;;;;;-7.73;79.16;98779.20;1744122;82;26138;-73
2020/12/02 00:53:02;;;;;;;200.20;80.60;;;;;;;-7.72;78.49;98780.85;1744113;82;28576;-71
2020/12/02 00:55:28;;;;;;;177.68;70.10;;;;;;;-7.63;78.89;98789.68;1744324;82;21047;-71
2020/12/02 00:57:54;;;;;;;205.18;85.95;;;;;;;-7.68;78.54;98790.13;1744088;82;21321;-72
2020/12/02 01:00:20;;;;;;;222.02;85.10;;;;;;;-7.71;77.85;98788.59;1744033;82;21139;-72
2020/12/02 01:03:00;;;;;;;210.25;86.90;;;;;;;-7.77;77.79;98781.80;1714734;82;26910;-71
2020/12/02 01:05:26;;;;;;;193.95;79.90;;;;;;;-7.84;77.46;98789.43;1744200;82;21047;-71
2020/12/02 01:07:52;;;;;;;227.47;93.67;;;;;;;-7.93;77.55;98779.77;1744102;82;21091;-71
2020/12/02 01:10:18;;;;;;;223.30;90.62;;;;;;;-8.00;78.39;98776.05;1744100;82;22025;-71
2020/12/02 01:12:47;;;;;;;200.72;85.77;;;;;;;-7.99;77.96;98781.17;1744106;81;26775;-72
2020/12/02 01:15:16;;;;;;;230.15;92.57;;;;;;;-8.04;77.40;98789.97;1744104;82;21163;-71
2020/12/02 01:17:42;;;;;;;213.32;86.63;;;;;;;-8.07;77.22;98781.55;1715471;82;21118;-72
2020/12/02 01:20:10;;;;;;;225.75;93.42;;;;;;;-8.17;77.34;98781.58;1744221;82;21586;-71
2020/12/02 01:22:39;;;;;;;212.50;90.72;;;;;;;-8.21;77.98;98780.19;1744088;82;21189;-71
2020/12/02 01:25:12;;;;;;;230.98;91.00;;;;;;;-8.19;77.67;98770.38;1714555;82;21479;-72
2020/12/02 01:27:49;;;;;;;209.00;83.42;;;;;;;-8.15;77.94;98777.48;1744141;82;21043;-72
2020/12/02 01:30:15;;;;;;;209.37;79.22;;;;;;;-8.19;78.49;98769.55;1744147;81;21044;-72
2020/12/02 01:32:41;;;;;;;198.82;81.57;;;;;;;-8.21;78.01;98770.16;1744092;82;26705;-71
2020/12/02 01:35:07;;;;;;;194.55;82.97;;;;;;;-8.26;78.50;98774.54;1744107;81;21075;-71
2020/12/02 01:37:36;;;;;;;188.30;78.00;;;;;;;-8.19;78.09;98776.13;1714678;82;27110;-72
2020/12/02 01:40:14;;;;;;;;;;;;;;;-8.15;77.87;98780.11;1746689;82;21144;-72
2020/12/02 01:42:42;;;;;;;178.60;67.35;;;;;;;-8.17;77.59;98784.20;1744247;81;20233;-72
2020/12/02 01:45:19;;;;;;;154.93;53.77;;;;;;;-8.20;78.30;98782.33;1744391;82;21052;-72
2020/12/02 01:48:03;;;;;;;172.10;70.40;;;;;;;-8.22;77.78;98777.22;1744107;82;21484;-72
2020/12/02 01:50:53;;;;;;;171.95;69.87;;;;;;;-8.32;77.86;98781.67;1744097;82;21178;-72
2020/12/02 01:53:47;;;;;;;194.47;74.53;;;;;;;-8.43;77.83;98780.07;1744073;82;21146;-72
2020/12/02 01:56:42;;;;;;;185.22;73.25;;;;;;;-8.46;78.75;98777.70;1744096;82;21254;-72
2020/12/02 01:59:43;;;;;;;179.25;75.22;;;;;;;-8.50;78.87;98780.77;1744077;82;21036;-71
2020/12/02 02:02:23;;;;;;;169.43;64.05;;;;;;;-8.50;78.66;98776.34;1743722;82;21294;-71
2020/12/02 02:05:01;;;;;;;158.65;61.83;;;;;;;-8.47;78.24;98778.68;1743703;82;21151;-71
2020/12/02 02:07:27;;;;;;;180.97;74.58;;;;;;;-8.47;77.88;98774.73;1743665;82;21070;-72
2020/12/02 02:09:56;;;;;;;153.27;64.22;;;;;;;-8.55;78.33;98773.30;1714822;82;28172;-71
2020/12/02 02:12:40;;;;;;;154.45;68.62;;;;;;;-8.56;78.06;98766.38;1744077;82;21429;-72
2020/12/02 02:15:30;;;;;;;183.32;77.32;;;;;;;-8.62;78.77;98764.34;1743661;82;21242;-71
2020/12/02 02:17:59;;;;;;;163.20;65.65;;;;;;;-8.48;78.86;98770.45;1708511;82;21083;-71
2020/12/02 02:20:29;;;;;;;192.65;84.60;;;;;;;-8.37;78.55;98770.80;1742686;82;21056;-71
2020/12/02 02:22:55;;;;;;;194.22;83.42;;;;;;;-8.42;79.62;98768.58;1715033;82;21477;-71
2020/12/02 02:25:21;;;;;;;193.00;80.90;;;;;;;-8.34;78.82;98772.62;1744082;82;26573;-71
2020/12/02 02:27:46;;;;;;;168.05;74.58;;;;;;;-8.30;78.53;98774.47;1744069;82;21803;-72
2020/12/02 02:30:13;;;;;;;164.97;71.12;;;;;;;-8.31;77.70;98772.32;1743991;82;26594;-71
2020/12/02 02:32:38;;;;;;;165.55;69.85;;;;;;;-8.33;77.39;98772.13;1714674;82;21080;-71
2020/12/02 02:35:04;;;;;;;162.77;68.47;;;;;;;-8.46;76.72;98772.45;1744121;82;28767;-72
2020/12/02 02:37:30;;;;;;;177.02;74.75;;;;;;;-8.45;77.31;98778.08;1744065;82;26678;-72
2020/12/02 02:39:56;;;;;;;164.90;67.20;;;;;;;-8.57;77.46;98772.61;1744100;82;21795;-73
2020/12/02 02:42:38;;;;;;;170.32;73.75;;;;;;;-8.55;77.90;98768.03;1743986;82;21166;-71
2020/12/02 02:45:11;;;;;;;193.52;76.35;;;;;;;-8.58;77.35;98774.41;1744099;82;21109;-70
2020/12/02 02:47:37;;;;;;;199.30;76.55;;;;;;;-8.58;77.26;98770.95;1744048;82;21472;-71
2020/12/02 02:50:07;;;;;;;192.32;75.30;;;;;;;-8.60;77.30;98767.65;1744083;82;26550;-71
2020/12/02 02:52:33;;;;;;;163.28;67.45;;;;;;;-8.64;77.52;98769.70;1743761;82;21272;-71
2020/12/02 02:54:58;;;;;;;154.72;63.65;;;;;;;-8.62;77.27;98774.84;1743987;82;26745;-71
2020/12/02 02:57:24;;;;;;;139.70;57.15;;;;;;;-8.68;77.08;98772.28;1743929;82;26443;-72
2020/12/02 02:59:50;;;;;;;138.40;60.25;;;;;;;-8.74;77.24;98770.69;1744041;82;28097;-72
2020/12/02 03:02:16;;;;;;;170.95;63.63;;;;;;;-8.71;78.14;98769.95;1744030;82;26540;-71
2020/12/02 03:04:41;;;;;;;156.05;61.13;;;;;;;-8.65;77.67;98767.23;1744030;82;22041;-72
2020/12/02 03:07:15;;;;;;;174.53;66.85;;;;;;;-8.63;77.71;98771.39;1744015;82;26698;-71
2020/12/02 03:09:42;;;;;;;150.75;64.05;;;;;;;-8.70;77.67;98772.92;1743832;81;21150;-70
2020/12/02 03:12:08;;;;;;;163.32;64.77;;;;;;;-8.76;77.26;98770.84;1744060;82;21516;-70
2020/12/02 03:14:34;;;;;;;153.00;61.18;;;;;;;-8.81;77.17;98769.92;1743976;82;21079;-70
2020/12/02 03:17:00;;;;;;;163.40;64.15;;;;;;;-8.86;76.70;98771.33;1744086;82;21526;-71
2020/12/02 03:19:32;;;;;;;183.32;66.65;;;;;;;-8.86;76.80;98774.78;1744106;81;26642;-71
2020/12/02 03:22:01;;;;;;;159.52;65.40;;;;;;;-8.92;76.90;98777.95;1744231;82;21016;-72
2020/12/02 03:24:28;;;;;;;164.80;71.33;;;;;;;-8.90;77.12;98776.02;1744162;82;21056;-70
2020/12/02 03:26:53;;;;;;;167.47;70.85;;;;;;;-8.94;76.71;98775.13;1744248;82;21154;-70
2020/12/02 03:29:19;;;;;;;170.95;77.32;;;;;;;-9.04;77.19;98772.98;1744111;82;21806;-71
2020/12/02 03:31:45;;;;;;;182.35;71.45;;;;;;;-8.96;77.13;98773.13;1744158;82;27249;-72
2020/12/02 03:34:14;;;;;;;149.38;56.40;;;;;;;-8.95;78.13;98770.36;1744107;82;26211;-72
2020/12/02 03:36:39;;;;;;;138.72;55.58;;;;;;;-8.85;77.56;98765.93;1743953;82;21170;-71
2020/12/02 03:39:07;;;;;;;139.05;56.73;;;;;;;-8.92;78.06;98771.88;1744172;82;27123;-71
2020/12/02 03:41:33;;;;;;;126.22;51.77;;;;;;;-8.90;77.19;98772.56;1744194;82;21264;-71
2020/12/02 03:43:59;;;;;;;126.58;55.05;;;;;;;-8.92;77.65;98771.88;1744050;82;26558;-71
2020/12/02 03:46:24;;;;;;;129.25;51.77;;;;;;;-8.85;78.43;98771.67;1714877;82;26317;-71
2020/12/02 03:48:51;;;;;;;150.30;62.55;;;;;;;-8.87;77.25;98767.88;1744173;82;28512;-73
2020/12/02 03:51:17;;;;;;;181.65;64.97;;;;;;;-8.85;77.33;98772.50;1744180;82;21198;-71
2020/12/02 03:53:43;;;;;;;147.10;54.85;;;;;;;-8.92;77.91;98771.39;1744175;81;22067;-71
2020/12/02 03:56:08;;;;;;;131.27;53.28;;;;;;;-8.86;78.32;98773.95;1744126;82;26694;-72
2020/12/02 03:58:34;;;;;;;144.22;55.65;;;;;;;-8.83;78.10;98774.50;1744072;82;26300;-71
2020/12/02 04:01:01;;;;;;;138.75;54.77;;;;;;;-8.87;77.51;98775.75;1744190;82;28115;-71
2020/12/02 04:03:26;;;;;;;149.38;57.98;;;;;;;-8.82;77.76;98774.02;1714990;82;21496;-71
2020/12/02 04:05:52;;;;;;;165.70;68.83;;;;;;;-8.83;77.33;98773.67;1744185;82;21999;-71
2020/12/02 04:08:18;;;;;;;194.00;69.65;;;;;;;-8.82;77.33;98768.76;1744083;81;26691;-71
2020/12/02 04:10:43;;;;;;;146.70;57.78;;;;;;;-8.82;76.87;98774.84;1714761;82;26301;-73
2020/12/02 04:13:09;;;;;;;126.02;45.92;;;;;;;-8.88;76.94;98775.41;1744145;82;28093;-72
2020/12/02 04:15:35;;;;;;;111.68;42.93;;;;;;;-8.96;76.71;98772.65;1744160;82;27256;-71
2020/12/02 04:18:01;;;;;;;139.28;46.37;;;;;;;-9.00;77.12;98773.05;1744104;82;21719;-72
2020/12/02 04:20:26;;;;;;;132.37;45.58;;;;;;;-9.05;77.27;98776.10;1744078;82;27224;-73
2020/12/02 04:22:53;;;;;;;129.12;49.05;;;;;;;-9.04;77.59;98772.50;1744126;82;26169;-72
2020/12/02 04:25:22;;;;;;;118.20;48.35;;;;;;;-9.06;77.68;98776.21;1744173;82;21627;-72
2020/12/02 04:27:49;;;;;;;131.52;54.75;;;;;;;-9.05;77.92;98776.59;1744119;82;21135;-73
2020/12/02 04:30:14;;;;;;;106.03;42.45;;;;;;;-8.99;78.35;98779.95;1744112;82;21346;-72
2020/12/02 04:32:40;;;;;;;122.05;48.25;;;;;;;-8.96;77.78;98774.45;1744107;82;26618;-71
2020/12/02 04:35:07;;;;;;;157.45;64.42;;;;;;;-9.05;78.14;98774.79;1744134;82;26303;-73
2020/12/02 04:37:34;;;;;;;236.40;90.47;;;;;;;-9.04;77.04;98776.45;1744097;82;21170;-71
2020/12/02 04:40:00;;;;;;;208.65;76.87;;;;;;;-9.03;77.44;98780.73;1744101;82;21558;-72
2020/12/02 04:42:30;;;;;;;168.45;61.28;;;;;;;-9.06;77.14;98778.35;1744113;82;21719;-71
2020/12/02 04:44:56;;;;;;;138.15;51.48;;;;;;;-9.08;77.07;98784.23;1742848;82;21067;-73
2020/12/02 04:47:32;;;;;;;136.52;52.67;;;;;;;-9.13;77.35;98782.52;1744251;82;26771;-71
2020/12/02 04:49:58;;;;;;;108.35;42.40;;;;;;;-9.10;77.26;98782.23;1744100;82;21059;-72
2020/12/02 04:52:23;;;;;;;119.47;51.45;;;;;;;-9.06;77.19;98786.23;1744196;82;26904;-72
2020/12/02 04:54:49;;;;;;;120.75;46.25;;;;;;;-9.06;77.10;98781.47;1744123;82;21844;-70
2020/12/02 04:57:15;;;;;;;107.97;47.58;;;;;;;-9.03;77.19;98784.66;1744046;81;26689;-72
2020/12/02 04:59:43;;;;;;;142.82;58.42;;;;;;;-9.05;76.68;98787.09;1744040;82;21590;-70
2020/12/02 05:02:27;;;;;;;149.32;59.20;;;;;;;-9.10;76.51;98788.80;1744150;82;21139;-71
2020/12/02 05:04:57;;;;;;;109.87;47.30;;;;;;;-9.13;76.61;98793.02;1743792;82;21103;-72
2020/12/02 05:07:28;;;;;;;134.32;52.65;;;;;;;-9.23;76.67;98791.67;1714808;82;22102;-71
2020/12/02 05:10:02;;;;;;;116.70;53.80;;;;;;;-9.24;76.44;98784.77;1744114;81;21071;-70
2020/12/02 05:12:37;;;;;;;105.55;40.60;;;;;;;-9.24;76.63;98786.08;1744138;82;21119;-71
2020/12/02 05:15:28;;;;;;;118.28;52.90;;;;;;;-9.26;76.84;98778.83;1744084;82;21538;-71
2020/12/02 05:18:16;;;;;;;108.90;41.85;;;;;;;-9.33;76.91;98781.64;1733624;82;21131;-72
2020/12/02 05:20:42;;;;;;;97.65;40.17;;;;;;;-9.31;76.90;98784.98;1744314;82;21535;-70
2020/12/02 05:23:13;;;;;;;109.32;50.38;;;;;;;-9.43;76.61;98786.88;1744027;82;21174;-71
2020/12/02 05:25:38;;;;;;;131.60;51.80;;;;;;;-9.46;77.09;98785.02;1742930;82;21051;-72
2020/12/02 05:28:18;;;;;;;124.47;54.90;;;;;;;-9.49;77.07;98789.20;1744070;82;28552;-73
2020/12/02 05:30:44;;;;;;;126.78;52.05;;;;;;;-9.44;77.02;98780.45;1744165;82;21031;-71
2020/12/02 05:33:18;;;;;;;111.77;42.05;;;;;;;-9.42;77.41;98776.72;1714518;82;21958;-71
2020/12/02 05:36:07;;;;;;;113.25;42.62;;;;;;;-9.39;76.83;98781.72;1744070;82;21453;-73
2020/12/02 05:39:02;;;;;;;98.92;40.40;;;;;;;-9.40;77.21;98782.69;1743587;82;21497;-70
2020/12/02 05:41:28;;;;;;;96.80;36.93;;;;;;;-9.32;77.43;98778.53;1714966;82;21107;-72
2020/12/02 05:44:18;;;;;;;109.07;38.67;;;;;;;-9.31;77.10;98784.98;1744046;82;26935;-70
2020/12/02 05:46:56;;;;;;;104.95;41.25;;;;;;;-9.35;77.52;98774.87;1744247;82;21346;-72
2020/12/02 05:49:45;;;;;;;117.53;46.75;;;;;;;-9.36;77.45;98777.16;1698105;82;21114;-72
2020/12/02 05:52:23;;;;;;;113.42;49.20;;;;;;;-9.35;76.81;98782.27;1744130;82;21142;-71
2020/12/02 05:54:48;;;;;;;115.45;50.00;;;;;;;-9.34;76.75;98781.78;1725888;82;21051;-72
2020/12/02 05:57:16;;;;;;;113.47;46.10;;;;;;;-9.39;76.43;98782.20;1744166;82;27254;-71
2020/12/02 05:59:42;;;;;;;125.27;51.90;;;;;;;-9.41;76.71;98788.05;1743980;82;21462;-73
2020/12/02 06:02:07;;;;;;;106.70;45.60;;;;;;;-9.40;77.63;98786.63;1744021;82;21246;-71
2020/12/02 06:04:33;;;;;;;117.97;45.88;;;;;;;-9.39;77.05;98785.66;1744071;82;26130;-72
2020/12/02 06:06:59;;;;;;;109.80;47.60;;;;;;;-9.39;77.45;98786.97;1744136;82;28121;-73
2020/12/02 06:09:42;;;;;;;101.65;37.38;;;;;;;-9.33;77.00;98788.20;1744035;82;27057;-72
2020/12/02 06:12:22;;;;;;;117.22;46.98;;;;;;;-9.33;77.03;98786.89;1743069;82;22047;-71
2020/12/02 06:14:48;;;;;;;84.20;32.70;;;;;;;-9.35;77.20;98784.06;1744033;82;21047;-72
2020/12/02 06:17:24;;;;;;;113.75;47.15;;;;;;;-9.28;77.42;98786.02;1744063;82;26344;-70
2020/12/02 06:19:50;;;;;;;106.43;47.90;;;;;;;-9.28;77.33;98786.50;1744073;82;21567;-71
2020/12/02 06:22:47;;;;;;;121.47;45.73;;;;;;;-9.16;77.52;98790.65;1744135;82;26501;-70
2020/12/02 06:25:51;;;;;;;102.67;40.67;;;;;;;-9.15;76.53;98787.05;1715703;82;21512;-73
2020/12/02 06:28:25;;;;;;;68.87;28.92;;;;;;;-9.16;77.19;98789.34;1743991;82;21167;-71
2020/12/02 06:30:57;;;;;;;81.65;37.78;;;;;;;-9.17;76.74;98789.82;1739755;82;21142;-72
2020/12/02 06:33:31;;;;;;;117.22;44.63;;;;;;;-9.25;76.40;98791.47;1715746;82;21151;-72
2020/12/02 06:36:14;;;;;;;118.00;47.85;;;;;;;-9.22;76.54;98799.09;1744142;82;21032;-73
2020/12/02 06:38:40;;;;;;;116.70;50.90;;;;;;;-9.34;76.63;98780.47;1744139;82;21177;-73
2020/12/02 06:41:26;;;;;;;123.82;54.75;;;;;;;-9.36;76.44;98781.09;1744093;82;27219;-71
2020/12/02 06:44:16;;;;;;;144.90;57.17;;;;;;;-9.30;76.89;98781.87;1744011;82;21047;-71
2020/12/02 06:47:14;;;;;;;222.30;83.58;;;;;;;-9.26;76.30;98783.25;1744186;82;21158;-70
2020/12/02 06:49:40;;;;;;;211.22;77.55;;;;;;;-9.36;76.20;98777.98;1744212;81;22109;-70
2020/12/02 06:52:12;;;;;;;145.55;56.73;;;;;;;-9.33;76.17;98776.39;1744104;82;22129;-72
2020/12/02 06:54:39;;;;;;;171.53;68.17;;;;;;;-9.30;76.38;98780.56;1744043;81;21071;-71
2020/12/02 06:57:22;;;;;;;173.22;79.07;;;;;;;-9.33;76.74;98781.64;1744021;82;21118;-71
2020/12/02 06:59:54;;;;;;;156.50;62.53;;;;;;;-9.23;77.40;98783.80;1744059;81;21480;-71
2020/12/02 07:02:43;;;;;;;136.15;57.05;;;;;;;-9.13;76.61;98787.77;1716167;82;21091;-72
2020/12/02 07:05:32;;;;;;;143.85;63.20;;;;;;;-9.07;76.22;98785.89;1714773;82;21875;-73
2020/12/02 07:08:27;;;;;;;170.17;72.78;;;;;;;-9.19;75.76;98783.88;1744015;82;21103;-73
2020/12/02 07:11:07;;;;;;;146.05;63.78;;;;;;;-9.17;75.78;98787.68;1736149;82;21134;-73
2020/12/02 07:13:37;;;;;;;150.53;64.95;;;;;;;-9.14;75.91;98786.94;1743238;82;21213;-71
2020/12/02 07:16:29;;;;;;;143.85;61.30;;;;;;;-9.11;75.99;98784.03;1744112;82;21092;-72
2020/12/02 07:19:02;;;;;;;154.10;65.90;;;;;;;-9.13;75.58;98790.40;1743994;82;21458;-72
2020/12/02 07:22:00;;;;;;;135.25;57.48;;;;;;;-9.11;76.04;98797.16;1743938;82;21119;-73
2020/12/02 07:24:31;;;;;;;117.33;44.73;;;;;;;-9.06;75.76;98787.55;1742780;82;21079;-72
2020/12/02 07:26:59;;;;;;;165.65;77.17;;;;;;;-8.91;76.35;98787.49;1743393;82;21466;-73
2020/12/02 07:29:27;;;;;;;113.62;48.15;;;;;;;-8.91;76.19;98778.78;1744375;82;21035;-73
2020/12/02 07:31:59;;;;;;;;;;;;;;;-8.86;76.15;98787.92;1746662;82;21126;-71
2020/12/02 07:34:27;;;;;;;156.50;56.95;;;;;;;-8.72;76.41;98777.95;1743771;81;20248;-71
2020/12/02 07:37:04;;;;;;;122.47;51.25;;;;;;;-8.66;77.04;98779.54;1744205;81;21106;-73
2020/12/02 07:39:31;;;;;;;146.53;66.25;;;;;;;-8.48;77.17;98786.22;1743938;82;21158;-71
2020/12/02 07:42:25;;;;;;;286.48;120.28;;;;;;;-8.38;76.88;98780.45;1744006;82;21603;-71
2020/12/02 07:44:59;;;;;;;440.52;180.35;;;;;;;-8.34;76.23;98778.36;1744010;82;22059;-72
2020/12/02 07:47:25;;;;;;;191.00;80.87;;;;;;;-8.28;76.18;98771.23;1743791;82;21527;-72
2020/12/02 07:49:58;;;;;;;156.07;73.20;;;;;;;-8.29;75.77;98773.03;1714931;82;21127;-71
2020/12/02 07:52:37;;;;;;;160.48;67.90;;;;;;;-8.28;75.84;98769.43;1742054;82;21071;-71
2020/12/02 07:55:05;;;;;;;173.17;74.87;;;;;;;-8.20;76.19;98768.72;1744009;82;21130;-73
2020/12/02 07:57:34;;;;;;;167.43;72.72;;;;;;;-8.10;76.48;98764.25;1744223;82;21571;-74
2020/12/02 08:00:31;;;;;;;130.15;51.18;;;;;;;-8.00;76.28;98763.73;1743973;81;26730;-72
2020/12/02 08:02:58;;;;;;;187.47;82.88;;;;;;;-7.86;76.35;98757.18;1743556;82;21186;-71
2020/12/02 08:05:52;;;;;;;156.10;69.95;;;;;;;-7.88;76.48;98760.42;1715446;82;21072;-73
2020/12/02 08:08:17;;;;;;;160.82;66.53;;;;;;;-7.77;76.79;98752.84;1744033;82;21555;-72
2020/12/02 08:10:48;;;;;;;126.30;53.02;;;;;;;-7.70;76.75;98754.72;1744136;81;21216;-72
2020/12/02 08:13:21;;;;;;;119.05;53.13;;;;;;;-7.52;76.85;98746.04;1715957;82;21091;-70
2020/12/02 08:15:56;;;;;;;123.28;54.77;;;;;;;-7.38;76.73;98750.81;1715378;82;21101;-71
2020/12/02 08:18:25;;;;;;;132.45;58.95;;;;;;;-7.25;77.08;98741.25;1714536;82;21598;-71
2020/12/02 08:20:51;;;;;;;121.67;53.58;;;;;;;-7.10;76.74;98741.88;1744216;82;21118;-73
2020/12/02 08:23:25;;;;;;;147.47;63.95;;;;;;;-6.94;77.14;98748.28;1744168;82;21332;-72
2020/12/02 08:26:17;;;;;;;148.82;65.20;;;;;;;-6.76;77.12;98739.88;1744060;82;21151;-72
2020/12/02 08:28:48;;;;;;;178.95;75.57;;;;;;;-6.57;77.08;98742.84;1744166;81;21154;-72
2020/12/02 08:31:27;;;;;;;164.50;72.32;;;;;;;-6.34;77.09;98743.16;1744136;82;21075;-71
2020/12/02 08:34:29;;;;;;;216.00;89.80;;;;;;;-6.22;75.99;98735.83;1742823;82;21488;-72
2020/12/02 08:37:22;;;;;;;202.57;80.67;;;;;;;-6.22;76.25;98729.23;1744186;82;21415;-72
2020/12/02 08:47:27;;;;;;;179.12;72.70;;;;;;;-5.80;76.13;98720.84;1816209;78;22646;-69
2020/12/02 08:49:54;;;;;;;168.07;71.60;;;;;;;-5.75;75.71;98724.31;1780083;80;21531;-71
2020/12/02 08:52:21;;;;;;;177.68;79.03;;;;;;;-5.69;75.45;98716.58;1751064;80;21614;-72
2020/12/02 08:54:49;;;;;;;194.20;83.50;;;;;;;-5.65;75.58;98721.53;1781743;80;21542;-72
2020/12/02 08:57:18;;;;;;;252.72;114.45;;;;;;;-5.55;75.28;98719.13;1781807;80;21157;-72
2020/12/02 08:59:45;;;;;;;132.63;61.18;;;;;;;-5.44;75.54;98719.31;1781820;80;21566;-73
2020/12/02 09:02:17;;;;;;;155.95;64.45;;;;;;;-5.29;75.74;98716.88;1781825;80;21050;-73
2020/12/02 09:04:46;;;;;;;189.43;78.62;;;;;;;-5.20;75.25;98707.98;1781853;80;21463;-73
2020/12/02 09:07:15;;;;;;;209.62;86.25;;;;;;;-5.20;75.18;98718.05;1750949;80;21042;-73
2020/12/02 09:09:46;;;;;;;225.40;95.25;;;;;;;-5.16;75.40;98714.08;1781924;80;21031;-73
2020/12/02 09:12:17;;;;;;;204.85;88.37;;;;;;;-5.04;75.18;98704.50;1781716;80;21043;-72
2020/12/02 09:14:50;;;;;;;197.30;80.65;;;;;;;-4.92;75.33;98704.53;1781879;80;21019;-73
2020/12/02 09:17:17;;;;;;;188.45;83.20;;;;;;;-4.83;74.97;98707.00;1781715;80;21090;-72
2020/12/02 09:19:45;;;;;;;177.65;81.65;;;;;;;-4.69;75.45;98697.59;1781737;80;21027;-73
2020/12/02 09:22:12;;;;;;;149.00;66.97;;;;;;;-4.54;75.27;98693.27;1781943;80;21460;-71
2020/12/02 09:24:38;;;;;;;148.47;62.05;;;;;;;-4.43;74.96;98681.53;1751209;80;21567;-71
2020/12/02 09:27:04;;;;;;;157.65;71.95;;;;;;;-4.32;74.99;98681.17;1781812;80;20995;-73
2020/12/02 09:29:30;;;;;;;143.55;65.92;;;;;;;-4.27;74.46;98682.00;1781796;80;21240;-71
2020/12/02 09:31:57;;;;;;;145.62;62.03;;;;;;;-4.20;74.71;98683.45;1781722;80;21511;-72
2020/12/02 09:34:23;;;;;;;131.05;61.25;;;;;;;-4.09;74.72;98678.63;1781722;80;21461;-73
2020/12/02 09:36:48;;;;;;;186.85;90.20;;;;;;;-4.00;74.45;98678.11;1781752;80;20896;-73
2020/12/02 09:39:15;;;;;;;177.07;84.72;;;;;;;-3.93;74.51;98676.91;1781807;80;20904;-72
2020/12/02 09:42:04;;;;;;;140.22;58.20;;;;;;;-3.83;74.88;98671.75;1781703;80;22074;-71
2020/12/02 09:44:41;;;;;;;126.67;59.93;;;;;;;-3.73;74.35;98666.24;1781730;80;21098;-72
2020/12/02 09:47:14;;;;;;;116.80;53.17;;;;;;;-3.63;74.57;98659.41;1781615;80;21495;-70
2020/12/02 09:49:42;;;;;;;124.87;54.77;;;;;;;-3.52;74.49;98658.50;1751257;80;21054;-72
2020/12/02 09:52:39;;;;;;;143.83;68.23;;;;;;;-3.46;74.13;98651.19;1782000;80;21110;-72
2020/12/02 09:55:24;;;;;;;191.50;88.52;;;;;;;-3.42;74.09;98649.85;1743453;80;22370;-72
2020/12/02 09:57:51;;;;;;;172.02;78.02;;;;;;;-3.34;73.98;98644.97;1781367;80;21110;-70
2020/12/02 10:00:19;;;;;;;155.90;66.95;;;;;;;-3.31;73.29;98648.62;1750497;80;21574;-71
2020/12/02 10:03:10;;;;;;;166.53;73.07;;;;;;;-3.26;73.81;98643.59;1750516;80;21173;-72
2020/12/02 10:06:22;;;;;;;169.55;69.67;;;;;;;-3.21;73.66;98640.42;1780696;80;21175;-73
2020/12/02 10:09:27;;;;;;;145.85;60.90;;;;;;;-3.19;73.41;98636.59;1781309;80;21155;-70
2020/12/02 10:12:07;;;;;;;188.82;76.47;;;;;;;-3.15;73.18;98637.90;1780736;80;21062;-71
2020/12/02 10:15:14;;;;;;;167.07;70.12;;;;;;;-3.07;73.57;98634.87;1781166;80;21133;-71
2020/12/02 10:18:01;;;;;;;137.37;64.60;;;;;;;-2.96;73.98;98629.13;1781171;80;21122;-73
2020/12/02 10:20:43;;;;;;;142.15;63.70;;;;;;;-2.86;73.85;98631.85;1781118;80;21095;-70
2020/12/02 10:24:04;;;;;;;122.15;56.37;;;;;;;-2.77;73.54;98625.16;1781242;80;21278;-72
2020/12/02 10:27:11;;;;;;;117.17;53.02;;;;;;;-2.80;72.43;98625.02;1729545;82;21486;-71
2020/12/02 10:30:03;;;;;;;106.35;48.02;;;;;;;-2.97;71.76;98623.01;1781272;80;21083;-73
2020/12/02 10:33:06;;;;;;;117.72;51.68;;;;;;;-3.02;71.83;98610.77;1780839;80;21122;-72
2020/12/02 10:35:35;;;;;;;107.67;48.58;;;;;;;-2.86;72.94;98614.61;1780577;80;21506;-71
2020/12/02 10:38:03;;;;;;;;;;;;;;;-2.73;72.95;98614.02;1783774;80;22116;-71
2020/12/02 10:40:34;;;;;;;117.10;51.15;;;;;;;-2.64;72.86;98609.45;1781013;80;20241;-72
2020/12/02 10:43:28;;;;;;;113.12;53.85;;;;;;;-2.57;73.03;98607.70;1780676;80;21111;-72
2020/12/02 10:45:54;;;;;;;113.50;49.05;;;;;;;-2.49;72.93;98598.83;1777334;80;21559;-72
2020/12/02 10:48:34;;;;;;;122.22;53.75;;;;;;;-2.41;72.79;98602.22;1781278;80;21585;-72
2020/12/02 10:51:00;;;;;;;117.75;53.40;;;;;;;-2.36;73.02;98600.36;1770206;80;21931;-71
2020/12/02 10:53:27;;;;;;;125.15;55.38;;;;;;;-2.32;72.52;98589.17;1781149;80;21400;-72
2020/12/02 10:55:53;;;;;;;119.90;58.20;;;;;;;-2.31;72.32;98589.52;1781090;80;21194;-72
2020/12/02 10:58:24;;;;;;;109.32;50.65;;;;;;;-2.31;72.70;98590.85;1781200;80;21764;-71
2020/12/02 11:00:53;;;;;;;121.25;56.83;;;;;;;-2.25;72.88;98589.27;1779968;80;21137;-71
2020/12/02 11:03:32;;;;;;;114.95;57.88;;;;;;;-2.19;73.04;98587.22;1780426;80;21166;-73
2020/12/02 11:06:36;;;;;;;130.95;56.85;;;;;;;-2.15;72.93;98591.13;1781161;80;21022;-70
2020/12/02 11:09:35;;;;;;;116.45;55.88;;;;;;;-2.10;72.82;98589.27;1780552;80;21092;-70
2020/12/02 11:12:20;;;;;;;;;;;;;;;-2.13;72.43;98585.66;1783814;80;21055;-72
2020/12/02 11:15:18;;;;;;;140.52;59.77;;;;;;;-2.11;72.44;98587.62;1781284;80;20245;-71
2020/12/02 11:18:12;;;;;;;129.95;59.33;;;;;;;-2.08;72.79;98581.42;1781353;80;21487;-71
2020/12/02 11:20:57;;;;;;;144.53;64.58;;;;;;;-2.02;72.91;98587.33;1781051;80;21150;-70
2020/12/02 11:23:37;;;;;;;154.05;66.65;;;;;;;-1.97;72.73;98591.25;1781142;80;21082;-70
2020/12/02 11:26:29;;;;;;;145.10;66.40;;;;;;;-1.93;72.85;98582.73;1781161;80;21170;-72
2020/12/02 11:37:59;;;;;;;141.57;62.40;;;;;;;-1.87;72.44;98570.05;1909093;74;22575;-69
2020/12/02 11:40:36;;;;;;;139.30;62.55;;;;;;;-1.87;72.86;98571.88;1838459;76;21122;-72
2020/12/02 11:43:26;;;;;;;149.42;66.02;;;;;;;-1.84;72.73;98569.66;1823217;78;21331;-72
2020/12/02 11:45:52;;;;;;;138.80;63.58;;;;;;;-1.82;72.58;98563.65;1827287;77;21468;-71
2020/12/02 11:48:29;;;;;;;142.20;70.62;;;;;;;-1.80;72.49;98554.98;1827409;78;21105;-71
2020/12/02 11:51:32;;;;;;;151.82;65.67;;;;;;;-1.78;72.60;98550.83;1827300;77;21091;-72
2020/12/02 11:54:04;;;;;;;148.28;65.75;;;;;;;-1.79;72.50;98557.98;1827477;77;21051;-72
2020/12/02 11:56:40;;;;;;;130.37;58.15;;;;;;;-1.82;72.57;98546.38;1827120;78;21195;-71